Time;durP1;ratioP1;P1;durP2;ratioP2;P2;SDS_P1;SDS_P2;PMS_P1;PMS_P2;Temp;Humidity;BMP_temperature;BMP_pressure;BME280_temperature;BME280_humidity;BME280_pressure;Samples;Min_cycle;Max_cycle;Signal;HPM_P1;HPM_P2
2023/07/01 00:01:46;;;;;;;4.37;3.90;;;14.10;99.90;;;;;;5057959;28;20231;-79
2023/07/01 00:04:14;;;;;;;9.43;3.70;;;14.00;99.90;;;;;;5058666;28;20206;-79
2023/07/01 00:06:41;;;;;;;7.75;3.92;;;14.00;99.90;;;;;;5056009;28;20229;-79
2023/07/01 00:09:09;;;;;;;4.35;3.60;;;13.90;99.90;;;;;;5060314;28;20202;-80
2023/07/01 00:11:36;;;;;;;4.10;3.70;;;13.80;99.90;;;;;;5061247;28;20250;-79
2023/07/01 00:14:03;;;;;;;5.57;3.40;;;13.70;99.90;;;;;;5060925;28;20199;-79
2023/07/01 00:16:30;;;;;;;5.95;3.70;;;13.70;99.90;;;;;;5061163;28;20290;-79
2023/07/01 00:18:56;;;;;;;7.15;3.85;;;13.60;99.90;;;;;;5061281;28;20199;-79
2023/07/01 00:21:24;;;;;;;5.65;3.88;;;13.60;99.90;;;;;;5061083;28;20579;-80
2023/07/01 00:23:51;;;;;;;4.95;3.28;;;13.60;99.90;;;;;;5060795;28;20203;-80
2023/07/01 00:26:21;;;;;;;3.60;3.30;;;13.70;99.90;;;;;;5060475;28;20215;-79
2023/07/01 00:28:48;;;;;;;5.97;3.47;;;13.70;99.90;;;;;;5052803;28;20209;-79
2023/07/01 00:31:15;;;;;;;3.78;3.40;;;13.70;99.90;;;;;;5060949;28;20225;-79
2023/07/01 00:33:41;;;;;;;6.07;3.58;;;13.50;99.90;;;;;;5060310;28;20207;-79
2023/07/01 00:36:08;;;;;;;6.28;3.10;;;13.50;99.90;;;;;;5060072;28;20199;-79
2023/07/01 00:38:36;;;;;;;6.87;3.33;;;13.30;99.90;;;;;;5058986;28;20206;-78
2023/07/01 00:41:03;;;;;;;4.07;3.30;;;13.30;99.90;;;;;;5059694;28;20215;-79
2023/07/01 00:43:30;;;;;;;4.53;3.33;;;13.30;99.90;;;;;;5057524;28;20207;-79
2023/07/01 00:45:57;;;;;;;3.87;3.20;;;13.30;99.90;;;;;;5053272;28;20210;-79
2023/07/01 00:48:27;;;;;;;5.50;3.80;;;13.30;99.90;;;;;;5060210;28;20717;-78
2023/07/01 00:50:54;;;;;;;4.80;3.17;;;13.50;99.90;;;;;;5059340;28;20221;-78
2023/07/01 00:53:22;;;;;;;6.20;3.57;;;13.50;99.90;;;;;;5059858;28;20207;-79
2023/07/01 00:55:50;;;;;;;6.40;3.47;;;13.50;99.90;;;;;;5060041;28;20290;-79
2023/07/01 00:58:17;;;;;;;5.07;3.27;;;13.50;99.90;;;;;;5060209;28;20440;-79
2023/07/01 01:00:44;;;;;;;4.07;3.22;;;13.50;99.90;;;;;;5060229;28;20213;-79
2023/07/01 01:03:22;;;;;;;4.03;2.80;;;13.70;99.90;;;;;;5060732;28;20209;-79
2023/07/01 01:05:54;;;;;;;9.43;3.40;;;14.00;99.90;;;;;;5059814;28;20215;-79
2023/07/01 01:08:28;;;;;;;5.20;2.87;;;14.10;99.90;;;;;;5058917;28;20294;-79
2023/07/01 01:11:00;;;;;;;6.20;3.20;;;14.20;99.90;;;;;;5060105;28;20593;-78
2023/07/01 01:13:29;;;;;;;3.13;2.88;;;14.40;99.90;;;;;;5060704;28;20203;-79
2023/07/01 01:15:58;;;;;;;3.63;2.97;;;14.40;99.90;;;;;;5060457;28;20255;-79
2023/07/01 01:18:28;;;;;;;4.65;3.13;;;14.70;99.90;;;;;;5060947;28;20210;-78
2023/07/01 01:20:56;;;;;;;3.28;2.88;;;14.70;99.90;;;;;;5060534;28;20265;-79
2023/07/01 01:23:27;;;;;;;3.55;2.90;;;14.80;99.90;;;;;;5061410;28;20207;-79
2023/07/01 01:26:05;;;;;;;3.88;2.67;;;14.90;99.90;;;;;;5056364;28;20288;-79
2023/07/01 01:28:33;;;;;;;4.60;2.78;;;15.00;99.90;;;;;;5057892;28;20213;-79
2023/07/01 01:31:00;;;;;;;5.00;3.22;;;15.00;99.90;;;;;;5055439;28;20757;-79
2023/07/01 01:33:27;;;;;;;5.18;2.97;;;14.70;99.90;;;;;;5060265;28;20203;-79
2023/07/01 01:36:02;;;;;;;3.90;2.95;;;14.70;99.90;;;;;;5060046;28;20203;-79
2023/07/01 01:38:33;;;;;;;3.42;3.13;;;14.80;99.90;;;;;;5060217;28;20278;-79
2023/07/01 01:41:04;;;;;;;4.32;2.80;;;14.80;99.90;;;;;;5051943;28;20278;-78
2023/07/01 01:43:42;;;;;;;3.90;2.95;;;14.80;99.90;;;;;;5060292;28;20702;-78
2023/07/01 01:46:09;;;;;;;5.28;2.90;;;14.80;99.90;;;;;;5059867;28;20227;-78
2023/07/01 01:48:38;;;;;;;6.00;3.30;;;14.70;99.90;;;;;;5060384;28;20238;-79
2023/07/01 01:51:06;;;;;;;5.00;2.97;;;14.70;99.90;;;;;;5059338;28;20231;-79
2023/07/01 01:53:35;;;;;;;4.13;3.20;;;14.80;99.90;;;;;;5059794;28;20214;-79
2023/07/01 01:56:03;;;;;;;6.35;2.95;;;14.70;99.90;;;;;;5059543;28;20635;-79
2023/07/01 01:58:30;;;;;;;7.93;3.85;;;14.70;99.90;;;;;;5059110;28;20218;-79
2023/07/01 02:01:00;;;;;;;6.43;3.30;;;14.70;99.90;;;;;;5060141;28;20766;-79
2023/07/01 02:03:26;;;;;;;6.95;3.47;;;14.70;99.90;;;;;;5059666;28;20217;-78
2023/07/01 02:05:53;;;;;;;6.82;3.20;;;14.70;99.90;;;;;;5058586;28;20301;-79
2023/07/01 02:08:20;;;;;;;6.97;4.10;;;14.60;99.90;;;;;;5059295;28;20580;-79
2023/07/01 02:10:47;;;;;;;8.65;3.75;;;14.60;99.90;;;;;;5059272;28;20199;-79
2023/07/01 02:13:14;;;;;;;9.00;3.95;;;14.80;99.90;;;;;;5059897;28;20213;-79
2023/07/01 02:15:40;;;;;;;7.68;4.13;;;14.80;99.90;;;;;;5060043;28;20203;-79
2023/07/01 02:18:09;;;;;;;6.25;3.63;;;14.80;99.90;;;;;;5060430;28;20631;-79
2023/07/01 02:20:35;;;;;;;6.20;3.72;;;14.80;99.90;;;;;;5060031;28;20207;-79
2023/07/01 02:23:02;;;;;;;5.85;3.78;;;14.90;99.90;;;;;;5060522;28;20644;-79
2023/07/01 02:25:29;;;;;;;5.78;3.50;;;15.00;99.90;;;;;;5059717;28;20209;-78
2023/07/01 02:27:56;;;;;;;5.40;3.40;;;14.90;99.90;;;;;;5060358;28;20203;-79
2023/07/01 02:30:23;;;;;;;6.80;3.40;;;15.00;99.90;;;;;;5059206;28;20270;-78
2023/07/01 02:32:49;;;;;;;3.83;3.30;;;14.90;99.90;;;;;;5059327;28;20237;-79
2023/07/01 02:35:18;;;;;;;5.72;3.65;;;14.90;99.90;;;;;;5059793;28;20215;-79
2023/07/01 02:37:44;;;;;;;4.90;3.10;;;15.10;99.90;;;;;;5058832;28;20205;-79
2023/07/01 02:40:11;;;;;;;4.75;3.20;;;15.20;99.90;;;;;;5059369;28;20234;-79
2023/07/01 02:42:38;;;;;;;7.93;4.13;;;15.30;99.90;;;;;;5059698;28;20229;-79
2023/07/01 02:45:06;;;;;;;4.65;3.08;;;15.20;99.90;;;;;;5058744;28;20206;-80
2023/07/01 02:47:32;;;;;;;3.08;2.80;;;15.40;99.90;;;;;;5059556;28;20218;-79
2023/07/01 02:50:00;;;;;;;4.15;2.85;;;15.50;99.90;;;;;;5051308;28;20659;-79
2023/07/01 02:52:28;;;;;;;7.18;4.45;;;15.50;99.90;;;;;;5057612;28;20223;-79
2023/07/01 02:54:55;;;;;;;6.75;3.15;;;15.60;99.90;;;;;;5058000;28;20679;-79
2023/07/01 02:57:22;;;;;;;4.95;3.05;;;15.60;99.90;;;;;;5058658;28;20217;-79
2023/07/01 02:59:49;;;;;;;5.47;2.90;;;15.80;99.90;;;;;;5055821;28;20207;-78
2023/07/01 03:02:16;;;;;;;4.30;2.90;;;15.70;99.90;;;;;;5054148;28;20218;-80
2023/07/01 03:04:43;;;;;;;5.10;2.72;;;15.80;99.90;;;;;;5057208;28;20683;-78
2023/07/01 03:07:10;;;;;;;10.77;3.20;;;15.70;99.90;;;;;;5055049;28;20292;-78
2023/07/01 03:09:38;;;;;;;2.90;2.60;;;15.70;99.90;;;;;;5054130;28;20210;-79
2023/07/01 03:12:05;;;;;;;4.55;2.90;;;15.60;99.90;;;;;;5055447;28;20222;-79
2023/07/01 03:14:32;;;;;;;3.47;2.72;;;15.60;99.90;;;;;;5056379;28;20199;-78
2023/07/01 03:16:59;;;;;;;6.68;3.28;;;15.60;99.90;;;;;;5051416;28;20199;-78
2023/07/01 03:19:26;;;;;;;3.97;2.70;;;15.70;99.90;;;;;;5057505;28;20226;-79
2023/07/01 03:21:52;;;;;;;4.10;2.92;;;15.60;99.90;;;;;;5058091;28;20225;-79
2023/07/01 03:24:19;;;;;;;4.90;3.08;;;15.60;99.90;;;;;;5058083;28;20210;-79
2023/07/01 03:26:47;;;;;;;3.85;2.80;;;15.60;99.90;;;;;;5057722;28;20225;-79
2023/07/01 03:29:14;;;;;;;4.88;2.78;;;15.70;99.90;;;;;;5057313;28;20207;-79
2023/07/01 03:31:41;;;;;;;4.50;2.53;;;15.80;99.90;;;;;;5056846;28;20230;-78
2023/07/01 03:34:08;;;;;;;3.40;2.83;;;15.80;99.90;;;;;;5057047;28;20579;-79
2023/07/01 03:36:35;;;;;;;2.63;2.42;;;15.90;99.90;;;;;;5049096;28;20574;-79
2023/07/01 03:39:02;;;;;;;4.53;2.80;;;15.90;99.90;;;;;;5057786;28;20659;-79
2023/07/01 03:41:29;;;;;;;4.15;2.80;;;16.00;99.90;;;;;;5057530;28;20231;-79
2023/07/01 03:43:57;;;;;;;4.60;2.50;;;16.00;99.90;;;;;;5060270;28;20199;-79
2023/07/01 03:46:24;;;;;;;3.65;2.85;;;16.00;99.90;;;;;;5061561;28;20596;-79
2023/07/01 03:48:51;;;;;;;4.63;2.83;;;16.00;99.90;;;;;;5061205;28;20294;-79
2023/07/01 03:51:18;;;;;;;5.68;2.70;;;16.10;99.90;;;;;;5058495;28;20226;-79
2023/07/01 03:53:45;;;;;;;3.63;3.10;;;16.00;99.90;;;;;;5060154;28;20199;-79
2023/07/01 03:56:11;;;;;;;3.50;2.75;;;16.10;99.90;;;;;;5062348;28;20203;-79
2023/07/01 03:58:38;;;;;;;2.97;2.72;;;16.00;99.90;;;;;;5062263;28;20209;-77
2023/07/01 04:01:06;;;;;;;6.20;2.83;;;16.00;99.90;;;;;;5062365;28;20309;-78
2023/07/01 04:03:34;;;;;;;6.13;3.15;;;16.00;99.90;;;;;;5061048;28;20222;-79
2023/07/01 04:06:01;;;;;;;4.30;2.90;;;16.10;99.90;;;;;;5052319;28;20577;-79
2023/07/01 04:08:28;;;;;;;4.13;2.83;;;16.10;99.90;;;;;;5061350;28;20685;-79
2023/07/01 04:10:57;;;;;;;4.28;2.67;;;16.10;99.90;;;;;;5060572;28;20219;-79
2023/07/01 04:13:24;;;;;;;4.43;2.40;;;16.20;99.90;;;;;;5059604;28;20214;-79
2023/07/01 04:15:51;;;;;;;6.20;2.90;;;16.20;99.90;;;;;;5059734;28;20275;-80
2023/07/01 04:18:20;;;;;;;3.13;2.75;;;16.20;99.90;;;;;;5060079;28;20257;-80
2023/07/01 04:20:47;;;;;;;3.42;3.00;;;16.20;99.90;;;;;;5059590;28;20211;-79
2023/07/01 04:23:14;;;;;;;9.65;6.82;;;16.20;99.90;;;;;;5060545;28;20261;-80
2023/07/01 04:25:41;;;;;;;5.38;3.25;;;16.20;99.90;;;;;;5058290;28;20218;-79
2023/07/01 04:28:09;;;;;;;5.68;2.50;;;16.30;99.90;;;;;;5055340;28;20222;-80
2023/07/01 04:30:35;;;;;;;3.55;2.75;;;16.30;99.90;;;;;;5055510;28;20206;-79
2023/07/01 04:33:02;;;;;;;5.43;2.90;;;16.40;99.90;;;;;;5059860;28;20209;-78
2023/07/01 04:35:30;;;;;;;3.88;2.70;;;16.40;99.90;;;;;;5060713;28;20233;-78
2023/07/01 04:37:57;;;;;;;4.55;2.72;;;16.50;99.90;;;;;;5062390;28;20203;-79
2023/07/01 04:40:24;;;;;;;4.65;3.28;;;16.50;99.90;;;;;;5061670;28;20209;-79
2023/07/01 04:42:51;;;;;;;3.28;2.80;;;16.50;99.90;;;;;;5061059;28;20227;-79
2023/07/01 04:45:19;;;;;;;3.05;2.70;;;16.50;99.90;;;;;;5061290;28;20290;-78
2023/07/01 04:47:46;;;;;;;3.65;2.92;;;16.50;99.90;;;;;;5059900;28;20246;-78
2023/07/01 04:50:13;;;;;;;3.78;2.88;;;16.60;99.90;;;;;;5058749;28;20215;-78
2023/07/01 04:52:41;;;;;;;6.80;3.20;;;16.60;99.90;;;;;;5059817;28;20237;-78
2023/07/01 04:55:08;;;;;;;2.92;2.70;;;16.70;99.90;;;;;;5059951;28;20199;-80
2023/07/01 04:57:35;;;;;;;5.85;3.10;;;16.70;99.90;;;;;;5056246;28;20219;-79
2023/07/01 05:00:05;;;;;;;3.83;2.83;;;16.80;99.90;;;;;;5055103;28;20207;-80
2023/07/01 05:02:32;;;;;;;5.50;2.78;;;16.80;99.90;;;;;;5051638;28;20273;-78
2023/07/01 05:04:58;;;;;;;5.38;2.60;;;16.80;99.90;;;;;;5059383;28;20647;-79
2023/07/01 05:07:25;;;;;;;6.20;2.90;;;16.80;99.90;;;;;;5057133;28;20318;-79
2023/07/01 05:09:53;;;;;;;3.63;2.92;;;16.90;99.90;;;;;;5058196;28;20218;-80
2023/07/01 05:12:20;;;;;;;4.95;2.70;;;16.90;99.90;;;;;;5056535;28;20737;-80
2023/07/01 05:14:47;;;;;;;5.20;2.72;;;17.10;99.90;;;;;;5058053;28;20214;-78
2023/07/01 05:17:14;;;;;;;3.38;2.75;;;17.00;99.90;;;;;;5059209;28;20217;-80
2023/07/01 05:19:41;;;;;;;3.58;2.67;;;16.90;99.90;;;;;;5058488;28;20203;-79
2023/07/01 05:22:07;;;;;;;3.83;2.78;;;16.90;99.90;;;;;;5059303;28;20231;-82
2023/07/01 05:24:34;;;;;;;3.45;2.65;;;17.00;99.90;;;;;;5057298;28;20217;-79
2023/07/01 05:27:03;;;;;;;4.07;2.80;;;17.10;99.90;;;;;;5058625;28;20222;-78
2023/07/01 05:29:29;;;;;;;3.65;2.90;;;17.10;99.90;;;;;;5058393;28;20208;-78
2023/07/01 05:31:56;;;;;;;2.70;2.50;;;17.10;99.90;;;;;;5058856;28;20223;-78
2023/07/01 05:34:24;;;;;;;4.05;2.90;;;17.20;99.90;;;;;;5060764;28;20213;-78
2023/07/01 05:36:50;;;;;;;4.22;2.90;;;17.30;99.90;;;;;;5057116;28;20581;-79
2023/07/01 05:39:17;;;;;;;4.85;2.80;;;17.60;99.90;;;;;;5054799;28;20289;-79
2023/07/01 05:41:45;;;;;;;4.82;3.17;;;17.60;99.90;;;;;;5059662;28;20273;-80
2023/07/01 05:44:13;;;;;;;2.83;2.58;;;17.70;99.90;;;;;;5056788;28;20289;-80
2023/07/01 05:46:41;;;;;;;7.95;3.40;;;17.80;99.90;;;;;;5055271;28;20214;-80
2023/07/01 05:49:08;;;;;;;3.47;2.83;;;17.90;99.90;;;;;;5048349;28;20218;-80
2023/07/01 05:51:35;;;;;;;3.90;2.70;;;17.90;99.90;;;;;;5056016;28;20235;-80
2023/07/01 05:54:02;;;;;;;2.97;2.53;;;18.10;99.90;;;;;;5056207;28;20199;-79
2023/07/01 05:56:29;;;;;;;6.00;2.95;;;18.40;99.90;;;;;;5056233;28;20207;-79
2023/07/01 05:58:56;;;;;;;3.00;2.70;;;18.40;99.90;;;;;;5055478;28;20199;-80
2023/07/01 06:01:24;;;;;;;4.15;3.03;;;18.40;99.90;;;;;;5056369;28;20246;-79
2023/07/01 06:03:51;;;;;;;4.68;3.00;;;18.60;99.90;;;;;;5056183;28;20199;-80
2023/07/01 06:06:18;;;;;;;3.22;2.50;;;18.60;99.90;;;;;;5056018;28;20215;-80
2023/07/01 06:08:45;;;;;;;4.47;2.58;;;18.30;99.90;;;;;;5056429;28;20227;-80
2023/07/01 06:11:12;;;;;;;4.65;2.45;;;18.10;99.90;;;;;;5056706;28;20223;-79
2023/07/01 06:13:39;;;;;;;5.20;2.88;;;18.20;99.90;;;;;;5056800;28;20662;-79
2023/07/01 06:16:05;;;;;;;3.05;2.55;;;18.10;99.90;;;;;;5056061;28;20681;-78
2023/07/01 06:18:34;;;;;;;4.60;2.47;;;18.00;99.90;;;;;;5056815;28;20622;-79
2023/07/01 06:21:03;;;;;;;2.72;2.38;;;18.00;99.90;;;;;;5055730;28;20253;-80
2023/07/01 06:23:30;;;;;;;2.92;2.70;;;18.10;99.90;;;;;;5054392;28;20203;-79
2023/07/01 06:25:57;;;;;;;2.85;2.65;;;18.00;99.90;;;;;;5054418;28;20202;-79
2023/07/01 06:28:24;;;;;;;5.32;3.00;;;18.10;99.90;;;;;;5055196;28;20586;-79
2023/07/01 06:30:51;;;;;;;4.45;2.83;;;17.90;99.90;;;;;;5054891;28;20226;-79
2023/07/01 06:33:18;;;;;;;2.97;2.72;;;18.00;99.90;;;;;;5054162;28;20217;-79
2023/07/01 06:35:46;;;;;;;3.03;2.45;;;18.00;99.90;;;;;;5051234;28;20214;-79
2023/07/01 06:38:13;;;;;;;3.15;2.85;;;18.10;99.90;;;;;;5054271;28;20191;-82
2023/07/01 06:40:40;;;;;;;8.48;3.80;;;18.20;99.90;;;;;;5056021;28;20214;-82
2023/07/01 06:43:07;;;;;;;5.40;3.65;;;18.20;99.90;;;;;;5056330;28;20680;-81
2023/07/01 06:45:33;;;;;;;7.05;3.22;;;18.20;99.90;;;;;;5054667;28;20217;-77
2023/07/01 06:48:01;;;;;;;4.40;2.72;;;18.30;99.90;;;;;;5055346;28;20231;-78
2023/07/01 06:50:27;;;;;;;3.63;2.67;;;18.40;99.90;;;;;;5052595;28;20284;-79
2023/07/01 06:52:56;;;;;;;3.22;2.90;;;18.40;99.90;;;;;;5052858;28;20219;-78
2023/07/01 06:55:23;;;;;;;3.90;2.80;;;18.40;99.90;;;;;;5050122;28;20290;-79
2023/07/01 06:57:49;;;;;;;3.13;2.78;;;18.50;99.90;;;;;;5052239;28;20203;-78
2023/07/01 07:00:17;;;;;;;5.75;2.75;;;18.40;99.90;;;;;;5051866;28;20203;-78
2023/07/01 07:02:44;;;;;;;5.07;2.67;;;18.70;99.90;;;;;;5051538;28;20644;-78
2023/07/01 07:05:11;;;;;;;4.72;3.08;;;18.60;99.90;;;;;;5044708;28;20201;-78
2023/07/01 07:07:37;;;;;;;3.42;2.92;;;18.70;99.90;;;;;;5052302;28;20302;-78
2023/07/01 07:10:06;;;;;;;3.75;2.72;;;18.70;99.90;;;;;;5052544;28;20199;-78
2023/07/01 07:12:33;;;;;;;5.05;3.80;;;18.90;99.90;;;;;;5050309;28;20229;-78
2023/07/01 07:15:00;;;;;;;4.05;2.80;;;18.90;99.90;;;;;;5043690;28;20215;-78
2023/07/01 07:17:27;;;;;;;4.57;3.28;;;18.90;99.90;;;;;;5055656;28;20656;-79
2023/07/01 07:19:54;;;;;;;3.38;2.70;;;18.90;99.90;;;;;;5057231;28;20206;-80
2023/07/01 07:22:20;;;;;;;2.72;2.50;;;18.90;99.90;;;;;;5056618;28;20229;-79
2023/07/01 07:24:47;;;;;;;3.10;2.55;;;19.00;99.90;;;;;;5055988;28;20199;-78
2023/07/01 07:27:16;;;;;;;7.05;3.03;;;19.00;99.90;;;;;;5056298;28;20210;-79
2023/07/01 07:29:42;;;;;;;4.28;2.58;;;19.00;99.90;;;;;;5056778;28;20214;-79
2023/07/01 07:32:09;;;;;;;3.38;2.60;;;18.90;99.90;;;;;;5056246;28;20218;-79
2023/07/01 07:34:37;;;;;;;4.43;2.65;;;18.90;99.90;;;;;;5056452;28;20230;-79
2023/07/01 07:37:05;;;;;;;5.35;2.97;;;19.00;99.90;;;;;;5057165;28;20203;-79
2023/07/01 07:39:32;;;;;;;5.65;2.78;;;18.80;99.90;;;;;;5056911;28;20195;-79
2023/07/01 07:41:59;;;;;;;4.03;2.38;;;18.80;99.90;;;;;;5056116;28;20245;-79
2023/07/01 07:44:27;;;;;;;2.63;2.35;;;18.80;99.90;;;;;;5056576;28;20261;-78
2023/07/01 07:46:55;;;;;;;4.63;2.67;;;18.90;99.90;;;;;;5055426;28;20545;-78
2023/07/01 07:49:22;;;;;;;2.60;2.40;;;19.00;99.90;;;;;;5055825;28;20234;-79
2023/07/01 07:51:49;;;;;;;2.80;2.53;;;19.10;99.90;;;;;;5055065;28;20230;-79
2023/07/01 07:54:16;;;;;;;6.28;2.45;;;19.20;99.90;;;;;;5056483;28;20205;-79
2023/07/01 07:56:42;;;;;;;5.03;2.42;;;19.40;99.90;;;;;;5055875;28;20209;-79
2023/07/01 07:59:09;;;;;;;3.45;3.03;;;19.40;99.90;;;;;;5056078;28;20197;-79
2023/07/01 08:01:37;;;;;;;4.40;2.60;;;19.70;99.90;;;;;;5056186;28;20222;-79
2023/07/01 08:04:04;;;;;;;4.15;2.38;;;19.90;99.90;;;;;;5056595;28;20565;-80
2023/07/01 08:06:31;;;;;;;5.38;3.97;;;20.10;99.90;;;;;;5055752;28;20203;-78
2023/07/01 08:08:58;;;;;;;7.50;3.70;;;20.20;99.90;;;;;;5047552;28;20226;-79
2023/07/01 08:11:25;;;;;;;3.42;2.50;;;20.10;99.90;;;;;;5054135;28;20229;-78
2023/07/01 08:13:51;;;;;;;5.10;2.80;;;19.80;99.90;;;;;;5049049;28;20203;-79
2023/07/01 08:16:18;;;;;;;5.05;2.58;;;20.00;99.90;;;;;;5054992;28;20576;-78
2023/07/01 08:18:46;;;;;;;3.63;2.55;;;19.90;99.90;;;;;;5055381;28;20206;-79
2023/07/01 08:21:13;;;;;;;3.45;2.55;;;19.90;99.90;;;;;;5046028;28;20289;-79
2023/07/01 08:23:40;;;;;;;2.60;2.40;;;19.80;99.90;;;;;;5053286;28;20211;-79
2023/07/01 08:26:07;;;;;;;4.57;2.72;;;19.70;99.90;;;;;;5054323;28;20207;-79
2023/07/01 08:28:34;;;;;;;5.10;2.63;;;19.50;99.90;;;;;;5052422;28;20227;-77
2023/07/01 08:31:01;;;;;;;3.60;2.60;;;19.50;99.90;;;;;;5051927;28;20313;-79
2023/07/01 08:33:28;;;;;;;4.38;2.47;;;19.30;99.90;;;;;;5049150;28;20218;-79
2023/07/01 08:35:57;;;;;;;3.05;2.40;;;19.20;99.90;;;;;;5050283;28;20200;-80
2023/07/01 08:38:24;;;;;;;4.57;2.60;;;19.10;99.90;;;;;;5051693;28;20230;-79
2023/07/01 08:40:53;;;;;;;4.43;2.63;;;19.20;99.90;;;;;;5055137;28;20255;-80
2023/07/01 08:43:24;;;;;;;2.47;2.28;;;19.00;99.90;;;;;;5052533;28;20207;-80
2023/07/01 08:45:52;;;;;;;3.50;2.05;;;19.10;99.90;;;;;;5054287;28;20206;-81
2023/07/01 08:48:21;;;;;;;2.78;2.50;;;19.10;99.90;;;;;;5055211;28;20310;-80
2023/07/01 08:50:56;;;;;;;3.15;2.30;;;19.10;99.90;;;;;;5050600;28;20234;-80
2023/07/01 08:53:25;;;;;;;4.78;2.60;;;19.20;99.90;;;;;;5049056;28;22118;-80
2023/07/01 08:55:54;;;;;;;8.65;3.00;;;19.10;99.90;;;;;;5053925;28;20211;-79
2023/07/01 08:58:21;;;;;;;3.97;2.78;;;19.20;99.90;;;;;;5054788;28;20278;-80
2023/07/01 09:00:49;;;;;;;3.03;2.60;;;19.20;99.90;;;;;;5048702;28;20230;-80
2023/07/01 09:03:16;;;;;;;3.25;2.20;;;19.00;99.90;;;;;;5051325;28;20199;-80
2023/07/01 09:05:43;;;;;;;3.67;2.45;;;18.90;99.90;;;;;;5049998;28;20299;-81
2023/07/01 09:08:09;;;;;;;6.60;2.80;;;18.80;99.90;;;;;;5055428;28;20226;-80
2023/07/01 09:10:38;;;;;;;4.22;2.70;;;18.80;99.90;;;;;;5051711;28;20211;-80
2023/07/01 09:13:11;;;;;;;3.53;2.65;;;18.70;99.90;;;;;;5051914;28;20677;-80
2023/07/01 09:15:46;;;;;;;4.43;2.40;;;18.80;99.90;;;;;;5055206;28;20213;-81
2023/07/01 09:18:24;;;;;;;6.22;2.50;;;19.00;99.90;;;;;;5055462;28;20205;-80
2023/07/01 09:20:51;;;;;;;4.13;2.67;;;19.10;99.90;;;;;;5056347;28;20245;-81
2023/07/01 09:23:29;;;;;;;3.72;2.58;;;19.20;99.90;;;;;;5053867;28;20218;-80
2023/07/01 09:26:13;;;;;;;5.50;2.90;;;19.50;99.90;;;;;;5053504;28;20285;-81
2023/07/01 09:28:41;;;;;;;5.05;2.50;;;19.70;99.90;;;;;;5052755;28;20310;-80
2023/07/01 09:31:10;;;;;;;5.32;2.72;;;19.70;99.90;;;;;;5055228;28;20591;-80
2023/07/01 09:33:37;;;;;;;3.13;2.30;;;19.80;99.90;;;;;;5053337;28;20200;-79
2023/07/01 09:36:05;;;;;;;3.25;2.70;;;19.90;99.90;;;;;;5056118;28;20209;-79
2023/07/01 09:38:33;;;;;;;3.70;2.30;;;19.90;99.90;;;;;;5055707;28;20203;-79
2023/07/01 09:41:12;;;;;;;4.45;2.60;;;19.80;99.90;;;;;;5050013;28;20233;-79
2023/07/01 09:43:39;;;;;;;6.00;2.75;;;19.90;99.90;;;;;;5052391;28;20210;-79
2023/07/01 09:46:06;;;;;;;3.47;2.80;;;19.90;99.90;;;;;;5054817;28;20207;-79
2023/07/01 09:48:34;;;;;;;5.68;2.70;;;19.60;99.90;;;;;;5047642;28;20245;-82
2023/07/01 09:51:04;;;;;;;7.53;3.20;;;19.60;99.90;;;;;;5052476;28;20218;-80
2023/07/01 09:53:33;;;;;;;5.07;3.05;;;19.60;99.90;;;;;;5053970;28;20301;-79
2023/07/01 09:56:03;;;;;;;6.65;2.85;;;19.40;99.90;;;;;;5043039;28;20203;-79
2023/07/01 09:58:32;;;;;;;5.05;2.92;;;19.50;99.90;;;;;;5050414;28;20203;-79
2023/07/01 10:00:59;;;;;;;5.40;2.72;;;19.20;99.90;;;;;;5047184;28;20231;-80
2023/07/01 10:03:26;;;;;;;4.82;3.10;;;19.20;99.90;;;;;;5051329;28;20211;-79
2023/07/01 10:05:54;;;;;;;4.97;3.10;;;19.10;99.90;;;;;;5050795;28;20214;-81
2023/07/01 10:08:21;;;;;;;7.68;3.33;;;19.10;99.90;;;;;;5051203;28;20227;-79
2023/07/01 10:10:59;;;;;;;7.60;2.90;;;19.20;99.90;;;;;;5052965;28;20214;-79
2023/07/01 10:13:27;;;;;;;3.83;3.15;;;19.20;99.90;;;;;;5045497;28;20199;-79
2023/07/01 10:15:56;;;;;;;5.53;2.97;;;19.30;99.90;;;;;;5051138;28;20252;-79
2023/07/01 10:18:24;;;;;;;4.47;2.78;;;19.40;99.90;;;;;;5055150;28;20293;-80
2023/07/01 10:20:51;;;;;;;7.25;2.78;;;19.40;99.90;;;;;;5053666;28;20231;-79
2023/07/01 10:23:19;;;;;;;3.72;3.13;;;19.60;99.90;;;;;;5054097;28;20256;-80
2023/07/01 10:25:46;;;;;;;11.75;3.08;;;19.20;99.90;;;;;;5055724;28;20207;-80
2023/07/01 10:28:14;;;;;;;5.60;3.15;;;19.00;99.90;;;;;;5051411;28;20207;-80
2023/07/01 10:31:13;;;;;;;4.10;3.10;;;18.90;99.90;;;;;;5050020;28;20207;-80
2023/07/01 10:33:53;;;;;;;4.60;3.10;;;18.80;99.90;;;;;;5044628;28;20207;-80
2023/07/01 10:36:20;;;;;;;3.15;2.75;;;18.60;99.90;;;;;;5050177;28;20663;-80
2023/07/01 10:38:47;;;;;;;3.33;2.95;;;18.50;99.90;;;;;;5053902;28;20237;-79
2023/07/01 10:41:14;;;;;;;5.00;3.00;;;18.40;99.90;;;;;;5054280;28;20707;-80
2023/07/01 10:43:43;;;;;;;5.30;3.25;;;18.30;99.90;;;;;;5048773;28;20210;-80
2023/07/01 10:46:13;;;;;;;4.72;2.90;;;18.30;99.90;;;;;;5054854;28;20293;-79
2023/07/01 10:48:40;;;;;;;5.85;3.00;;;18.30;99.90;;;;;;5048638;28;20218;-78
2023/07/01 10:51:08;;;;;;;4.32;3.25;;;18.30;99.90;;;;;;5051115;28;20603;-79
2023/07/01 10:54:00;;;;;;;4.05;2.83;;;18.30;99.90;;;;;;5052674;28;20208;-79
2023/07/01 10:56:29;;;;;;;3.15;2.90;;;18.40;99.90;;;;;;5046466;28;20574;-79
2023/07/01 10:59:22;;;;;;;3.58;3.08;;;18.50;99.90;;;;;;5050738;28;20200;-79
2023/07/01 11:01:51;;;;;;;6.72;2.90;;;18.60;99.90;;;;;;5049169;28;20286;-79
2023/07/01 11:04:19;;;;;;;5.07;3.15;;;18.50;99.90;;;;;;5051737;28;20218;-80
2023/07/01 11:06:48;;;;;;;6.70;3.65;;;18.60;99.90;;;;;;5054330;28;20199;-79
2023/07/01 11:09:16;;;;;;;3.22;2.92;;;18.40;99.90;;;;;;5047847;28;20251;-80
2023/07/01 11:11:43;;;;;;;3.35;3.03;;;18.40;99.90;;;;;;5050609;28;20587;-80
2023/07/01 11:14:12;;;;;;;5.15;3.10;;;18.30;99.90;;;;;;5053559;28;20207;-79
2023/07/01 11:16:39;;;;;;;3.67;3.08;;;18.40;99.90;;;;;;5052753;28;20552;-80
2023/07/01 11:19:09;;;;;;;5.85;3.05;;;18.30;99.90;;;;;;5053678;28;20209;-81
2023/07/01 11:21:37;;;;;;;6.35;3.50;;;18.30;99.90;;;;;;5054568;28;20223;-80
2023/07/01 11:24:06;;;;;;;5.00;3.90;;;18.40;99.90;;;;;;5054171;28;20207;-80
2023/07/01 11:26:34;;;;;;;3.63;3.15;;;18.60;99.90;;;;;;5054117;28;20277;-80
2023/07/01 11:29:01;;;;;;;4.65;3.20;;;18.70;99.90;;;;;;5052144;28;20317;-81
2023/07/01 11:31:32;;;;;;;4.30;3.25;;;18.70;99.90;;;;;;5053836;28;20690;-81
2023/07/01 11:33:59;;;;;;;4.78;2.90;;;19.00;99.90;;;;;;5047293;28;20528;-80
2023/07/01 11:36:36;;;;;;;4.32;3.20;;;19.10;99.90;;;;;;5043720;28;20198;-80
2023/07/01 11:39:10;;;;;;;5.03;3.67;;;19.20;99.90;;;;;;5050871;28;20294;-80
2023/07/01 11:41:38;;;;;;;7.57;3.58;;;19.20;99.90;;;;;;5048123;28;20224;-79
2023/07/01 11:44:07;;;;;;;5.88;2.90;;;19.40;99.90;;;;;;5049570;28;20290;-80
2023/07/01 11:46:35;;;;;;;6.30;3.58;;;19.30;99.90;;;;;;5053891;28;20206;-80
2023/07/01 11:49:16;;;;;;;7.15;5.57;;;19.40;99.90;;;;;;5049391;28;20231;-79
2023/07/01 11:51:45;;;;;;;5.38;3.53;;;19.40;99.90;;;;;;5052723;28;20223;-80
2023/07/01 11:54:13;;;;;;;4.32;3.15;;;19.30;99.90;;;;;;5053634;28;20207;-80
2023/07/01 11:56:40;;;;;;;3.60;2.92;;;19.40;99.90;;;;;;5051996;28;20234;-80
2023/07/01 11:59:07;;;;;;;5.43;3.30;;;19.40;99.90;;;;;;5052737;28;20210;-80
2023/07/01 12:01:37;;;;;;;3.22;2.80;;;19.40;99.90;;;;;;5053657;28;20233;-80
2023/07/01 12:04:14;;;;;;;3.47;2.78;;;19.50;99.90;;;;;;5055254;28;20210;-79
2023/07/01 12:06:41;;;;;;;3.83;3.08;;;19.50;99.90;;;;;;5058452;28;20202;-80
2023/07/01 12:09:09;;;;;;;4.00;3.10;;;19.60;99.90;;;;;;5056061;28;20222;-80
2023/07/01 12:11:47;;;;;;;3.13;2.85;;;19.60;99.90;;;;;;5054415;28;20246;-80
2023/07/01 12:14:18;;;;;;;3.30;3.00;;;19.80;99.90;;;;;;5054983;28;20202;-79
2023/07/01 12:16:47;;;;;;;5.05;3.05;;;19.70;99.90;;;;;;5056943;28;20625;-80
2023/07/01 12:19:14;;;;;;;5.25;3.00;;;19.70;99.90;;;;;;5056001;28;20370;-80
2023/07/01 12:21:43;;;;;;;6.82;2.85;;;19.80;99.90;;;;;;5054198;28;20238;-80
2023/07/01 12:24:19;;;;;;;2.95;2.70;;;19.70;99.90;;;;;;5055496;28;20233;-79
2023/07/01 12:26:46;;;;;;;4.15;3.10;;;19.70;99.90;;;;;;5052530;28;20659;-79
2023/07/01 12:29:13;;;;;;;3.88;2.80;;;19.70;99.90;;;;;;5057430;28;20234;-79
2023/07/01 12:31:40;;;;;;;4.32;3.10;;;19.60;99.90;;;;;;5051609;28;20227;-80
2023/07/01 12:34:07;;;;;;;3.75;3.00;;;19.60;99.90;;;;;;5054152;28;20661;-81
2023/07/01 12:36:35;;;;;;;6.88;2.80;;;19.70;99.90;;;;;;5051790;28;20203;-80
2023/07/01 12:39:02;;;;;;;4.95;3.05;;;19.70;99.90;;;;;;5058220;28;20207;-80
2023/07/01 12:41:31;;;;;;;3.88;2.70;;;19.80;99.90;;;;;;5054993;28;20226;-79
2023/07/01 12:43:58;;;;;;;4.38;3.08;;;19.90;99.90;;;;;;5049807;28;20203;-78
2023/07/01 12:46:25;;;;;;;4.45;3.42;;;19.90;99.90;;;;;;5055685;28;20203;-78
2023/07/01 12:48:51;;;;;;;5.00;2.90;;;20.00;99.90;;;;;;5054720;28;20258;-79
2023/07/01 12:51:18;;;;;;;5.57;3.17;;;20.00;99.90;;;;;;5053240;28;20233;-79
2023/07/01 12:53:45;;;;;;;3.22;2.75;;;19.90;99.90;;;;;;5053707;28;20207;-80